Rio Do Pires, Brazil
Current Conditions -  °F | °C
As of 8:00 PM on Wednesday 22 Oct 2014 (Local Time) from SBQV Reporting Station
Drizzle Drizzle  
Wind Chill: 64°   Ceiling: 500
Heat Index: 64°   Visibility: 2.5mi
Dew Point: 64°   Wind: 13mph
Humidity: 100%   Direction: 140°SE
Pressure: 30.18"   Gusts: NA
Location:  13.13°S, 42.3°W
Report Text: SBQV 222300Z 14011KT 4000 -DZ BR BKN005 18/18 Q1022
Loading
Personal Weather Stations






























Interactive Weather Map
Tropical Storm Tracking
New forecast layout! Learn more

10-Day Weather Forecast

Advertisements
Track Severe Weather on mobile